Time,TemperatureF,DewpointF,PressureIn,WindDirection,WindDirectionDegrees,WindSpeedMPH,WindSpeedGustMPH,Humidity,HourlyPrecipIn,Conditions,Clouds,dailyrainin,SoftwareType,DateUTC
2013-06-01 00:02:00,70.3,66.9,29.60,NE,43,6.0,7.0,89,0.00,,,0.00,Wunderground v.1.15,2013-06-01 05:02:00,
2013-06-01 00:14:00,70.0,66.9,29.61,NE,42,1.0,1.0,90,0.00,,,0.00,Wunderground v.1.15,2013-06-01 05:14:00,
2013-06-01 00:20:00,70.0,67.3,29.60,NE,42,0.0,3.0,91,0.00,,,0.00,Wunderground v.1.15,2013-06-01 05:20:00,
2013-06-01 00:34:00,69.8,67.1,29.61,NNW,346,0.0,1.0,91,0.00,,,0.00,Wunderground v.1.15,2013-06-01 05:34:00,
2013-06-01 00:40:00,69.6,66.9,29.61,NNW,345,1.0,2.0,91,0.00,,,0.00,Wunderground v.1.15,2013-06-01 05:40:00,
2013-06-01 00:54:00,69.5,66.8,29.57,North,350,1.0,1.0,91,0.00,,,0.00,Wunderground v.1.15,2013-06-01 05:54:00,
2013-06-01 01:00:00,69.5,66.8,29.58,North,350,0.0,0.0,91,0.00,,,0.00,Wunderground v.1.15,2013-06-01 06:00:00,
2013-06-01 01:14:00,69.6,67.2,29.59,NW,311,1.0,2.0,92,0.00,,,0.00,Wunderground v.1.15,2013-06-01 06:14:00,
2013-06-01 01:20:00,69.6,67.2,29.58,NE,41,2.0,2.0,92,0.00,,,0.00,Wunderground v.1.15,2013-06-01 06:20:00,
2013-06-01 01:34:00,69.9,67.2,29.58,SSE,163,3.0,3.0,91,0.00,,,0.00,Wunderground v.1.15,2013-06-01 06:34:00,
2013-06-01 01:40:00,70.4,66.3,29.59,SSE,155,3.0,5.0,87,0.00,,,0.00,Wunderground v.1.15,2013-06-01 06:40:00,
2013-06-01 01:54:00,71.3,65.9,29.61,South,170,2.0,2.0,83,0.00,,,0.00,Wunderground v.1.15,2013-06-01 06:54:00,
2013-06-01 02:00:00,71.3,65.5,29.61,SSE,167,3.0,6.0,82,0.00,,,0.00,Wunderground v.1.15,2013-06-01 07:00:00,
2013-06-01 02:14:00,70.8,65.4,29.61,WSW,254,3.0,3.0,83,0.00,,,0.00,Wunderground v.1.15,2013-06-01 07:14:00,
2013-06-01 02:20:00,70.5,65.1,29.60,SSE,157,2.0,3.0,83,0.00,,,0.00,Wunderground v.1.15,2013-06-01 07:20:00,
2013-06-01 02:34:00,69.9,65.2,29.60,ESE,111,2.0,2.0,85,0.00,,,0.00,Wunderground v.1.15,2013-06-01 07:34:00,
2013-06-01 02:40:00,69.6,65.2,29.63,SSE,150,2.0,4.0,86,0.00,,,0.00,Wunderground v.1.15,2013-06-01 07:40:00,
2013-06-01 02:54:00,69.0,65.0,29.60,SSE,161,1.0,1.0,87,0.00,,,0.00,Wunderground v.1.15,2013-06-01 07:54:00,
2013-06-01 03:00:00,68.6,64.6,29.63,SSE,163,2.0,2.0,87,0.00,,,0.00,Wunderground v.1.15,2013-06-01 08:00:00,
2013-06-01 03:14:00,67.6,63.3,29.58,SSE,163,3.0,3.0,86,0.00,,,0.00,Wunderground v.1.15,2013-06-01 08:14:00,
2013-06-01 03:20:00,67.2,62.9,29.62,South,189,3.0,3.0,86,0.00,,,0.00,Wunderground v.1.15,2013-06-01 08:20:00,
2013-06-01 03:34:00,66.6,62.3,29.65,South,189,1.0,1.0,86,0.00,,,0.00,Wunderground v.1.15,2013-06-01 08:34:00,
2013-06-01 03:40:00,66.3,62.3,29.62,SSE,163,1.0,1.0,87,0.00,,,0.00,Wunderground v.1.15,2013-06-01 08:40:00,
2013-06-01 03:54:00,65.7,62.0,29.65,SSW,212,1.0,2.0,88,0.00,,,0.00,Wunderground v.1.15,2013-06-01 08:54:00,
2013-06-01 04:00:00,65.5,62.2,29.63,SW,214,1.0,3.0,89,0.00,,,0.01,Wunderground v.1.15,2013-06-01 09:00:00,
2013-06-01 04:14:00,65.4,62.4,29.64,WSW,249,0.0,0.0,90,0.00,,,0.01,Wunderground v.1.15,2013-06-01 09:14:00,
2013-06-01 04:20:00,65.3,62.3,29.66,WSW,249,0.0,0.0,90,0.00,,,0.01,Wunderground v.1.15,2013-06-01 09:20:00,
2013-06-01 04:34:00,65.3,62.3,29.61,SE,145,4.0,5.0,90,0.00,,,0.01,Wunderground v.1.15,2013-06-01 09:34:00,
2013-06-01 04:40:00,65.3,62.6,29.64,SE,142,3.0,5.0,91,0.00,,,0.01,Wunderground v.1.15,2013-06-01 09:40:00,
2013-06-01 04:54:00,65.2,62.5,29.67,SE,142,0.0,0.0,91,0.00,,,0.01,Wunderground v.1.15,2013-06-01 09:54:00,
2013-06-01 05:00:00,65.2,62.5,29.69,SE,142,1.0,1.0,91,0.00,,,0.01,Wunderground v.1.15,2013-06-01 10:00:00,
2013-06-01 05:14:00,65.0,62.3,29.66,SE,140,3.0,3.0,91,0.00,,,0.01,Wunderground v.1.15,2013-06-01 10:14:00,
2013-06-01 05:20:00,65.0,62.3,29.65,SE,145,2.0,5.0,91,0.00,,,0.01,Wunderground v.1.15,2013-06-01 10:20:00,
2013-06-01 05:34:00,64.9,62.2,29.66,East,84,1.0,1.0,91,0.00,,,0.01,Wunderground v.1.15,2013-06-01 10:34:00,
2013-06-01 05:40:00,64.9,62.2,29.66,East,84,0.0,1.0,91,0.00,,,0.01,Wunderground v.1.15,2013-06-01 10:40:00,
2013-06-01 05:54:00,64.9,62.2,29.66,East,84,0.0,0.0,91,0.00,,,0.01,Wunderground v.1.15,2013-06-01 10:54:00,
2013-06-01 06:00:00,64.9,62.5,29.70,East,84,0.0,0.0,92,0.00,,,0.01,Wunderground v.1.15,2013-06-01 11:00:00,
2013-06-01 06:14:00,65.0,62.6,29.70,East,84,0.0,1.0,92,0.00,,,0.01,Wunderground v.1.15,2013-06-01 11:14:00,
2013-06-01 06:20:00,65.1,62.7,29.71,East,86,0.0,4.0,92,0.00,,,0.01,Wunderground v.1.15,2013-06-01 11:20:00,
2013-06-01 06:34:00,65.1,62.7,29.70,South,179,1.0,1.0,92,0.00,,,0.01,Wunderground v.1.15,2013-06-01 11:34:00,
2013-06-01 06:40:00,65.0,62.6,29.69,South,179,1.0,1.0,92,0.00,,,0.01,Wunderground v.1.15,2013-06-01 11:40:00,
2013-06-01 06:54:00,65.2,62.8,29.68,SE,138,6.0,8.0,92,0.00,,,0.01,Wunderground v.1.15,2013-06-01 11:54:00,
2013-06-01 07:00:00,65.2,62.5,29.69,SSE,168,5.0,5.0,91,0.00,,,0.01,Wunderground v.1.15,2013-06-01 12:00:00,
2013-06-01 07:14:00,65.3,62.9,29.72,SE,131,2.0,2.0,92,0.00,,,0.01,Wunderground v.1.15,2013-06-01 12:14:00,
2013-06-01 07:20:00,65.4,63.0,29.72,SE,132,1.0,2.0,92,0.00,,,0.01,Wunderground v.1.15,2013-06-01 12:20:00,
2013-06-01 07:34:00,65.3,62.9,29.72,SE,132,1.0,1.0,92,0.00,,,0.01,Wunderground v.1.15,2013-06-01 12:34:00,
2013-06-01 07:40:00,65.3,62.9,29.73,SE,132,1.0,2.0,92,0.00,,,0.01,Wunderground v.1.15,2013-06-01 12:40:00,
2013-06-01 07:54:00,65.5,63.1,29.76,WNW,300,2.0,4.0,92,0.00,,,0.01,Wunderground v.1.15,2013-06-01 12:54:00,
2013-06-01 08:00:00,65.5,63.1,29.77,NNW,337,3.0,3.0,92,0.00,,,0.01,Wunderground v.1.15,2013-06-01 13:00:00,
2013-06-01 08:14:00,65.6,63.2,29.76,NNW,338,2.0,2.0,92,0.00,,,0.01,Wunderground v.1.15,2013-06-01 13:14:00,
2013-06-01 08:20:00,65.6,63.2,29.76,North,355,2.0,5.0,92,0.00,,,0.01,Wunderground v.1.15,2013-06-01 13:20:00,
2013-06-01 08:34:00,65.6,63.2,29.77,North,350,1.0,2.0,92,0.00,,,0.01,Wunderground v.1.15,2013-06-01 13:34:00,
2013-06-01 08:40:00,65.7,63.0,29.77,North,349,2.0,4.0,91,0.00,,,0.01,Wunderground v.1.15,2013-06-01 13:40:00,
2013-06-01 08:54:00,65.9,63.2,29.77,North,350,1.0,3.0,91,0.00,,,0.01,Wunderground v.1.15,2013-06-01 13:54:00,
2013-06-01 09:00:00,66.0,63.3,29.78,North,350,1.0,4.0,91,0.00,,,0.01,Wunderground v.1.15,2013-06-01 14:00:00,
2013-06-01 09:14:00,66.2,63.8,29.78,North,350,1.0,1.0,92,0.00,,,0.01,Wunderground v.1.15,2013-06-01 14:14:00,
2013-06-01 09:20:00,66.5,63.8,29.77,North,5,0.0,1.0,91,0.00,,,0.01,Wunderground v.1.15,2013-06-01 14:20:00,
2013-06-01 09:34:00,67.3,64.3,29.79,NNE,18,0.0,0.0,90,0.00,,,0.01,Wunderground v.1.15,2013-06-01 14:34:00,
2013-06-01 09:40:00,67.7,64.3,29.79,NNE,18,0.0,0.0,89,0.00,,,0.01,Wunderground v.1.15,2013-06-01 14:40:00,
2013-06-01 09:54:00,68.4,64.4,29.80,NNE,17,0.0,0.0,87,0.00,,,0.01,Wunderground v.1.15,2013-06-01 14:54:00,
2013-06-01 10:00:00,68.8,64.8,29.80,NNE,17,0.0,0.0,87,0.00,,,0.01,Wunderground v.1.15,2013-06-01 15:00:00,
2013-06-01 10:14:00,68.8,64.4,29.80,North,360,1.0,1.0,86,0.00,,,0.01,Wunderground v.1.15,2013-06-01 15:14:00,
2013-06-01 10:20:00,68.8,64.4,29.80,North,360,1.0,2.0,86,0.00,,,0.01,Wunderground v.1.15,2013-06-01 15:20:00,
2013-06-01 10:34:00,68.9,64.2,29.80,NNW,348,2.0,2.0,85,0.00,,,0.01,Wunderground v.1.15,2013-06-01 15:34:00,
2013-06-01 10:40:00,69.4,65.0,29.81,NNW,344,1.0,4.0,86,0.00,,,0.01,Wunderground v.1.15,2013-06-01 15:40:00,
2013-06-01 10:54:00,70.8,64.3,29.81,NNW,348,2.0,2.0,80,0.00,,,0.01,Wunderground v.1.15,2013-06-01 15:54:00,
2013-06-01 11:00:00,70.4,60.5,29.82,NNE,19,4.0,5.0,71,0.00,,,0.01,Wunderground v.1.15,2013-06-01 16:00:00,
2013-06-01 11:14:00,71.3,56.7,29.82,NNE,15,4.0,4.0,60,0.00,,,0.01,Wunderground v.1.15,2013-06-01 16:14:00,
2013-06-01 11:20:00,72.1,56.0,29.83,NNE,14,4.0,6.0,57,0.00,,,0.01,Wunderground v.1.15,2013-06-01 16:20:00,
2013-06-01 11:34:00,73.7,57.0,29.83,NNE,24,3.0,3.0,56,0.00,,,0.01,Wunderground v.1.15,2013-06-01 16:34:00,
2013-06-01 11:40:00,74.4,56.2,29.83,NNW,339,2.0,5.0,53,0.00,,,0.01,Wunderground v.1.15,2013-06-01 16:40:00,
2013-06-01 11:54:00,75.0,57.7,29.83,NNE,18,2.0,2.0,55,0.00,,,0.01,Wunderground v.1.15,2013-06-01 16:54:00,
2013-06-01 12:00:00,75.6,57.8,29.83,NNE,29,2.0,2.0,54,0.00,,,0.01,Wunderground v.1.15,2013-06-01 17:00:00,
2013-06-01 12:14:00,77.0,57.5,29.83,North,350,1.0,1.0,51,0.00,,,0.01,Wunderground v.1.15,2013-06-01 17:14:00,
2013-06-01 12:20:00,77.5,56.8,29.83,North,350,1.0,1.0,49,0.00,,,0.01,Wunderground v.1.15,2013-06-01 17:20:00,
2013-06-01 12:34:00,77.2,55.4,29.83,NNW,333,2.0,2.0,47,0.00,,,0.01,Wunderground v.1.15,2013-06-01 17:34:00,
2013-06-01 12:40:00,77.2,54.2,29.83,North,360,2.0,4.0,45,0.00,,,0.01,Wunderground v.1.15,2013-06-01 17:40:00,
2013-06-01 12:54:00,78.4,55.3,29.83,North,5,2.0,2.0,45,0.00,,,0.01,Wunderground v.1.15,2013-06-01 17:54:00,
2013-06-01 13:00:00,78.7,55.6,29.83,WNW,290,2.0,3.0,45,0.00,,,0.01,Wunderground v.1.15,2013-06-01 18:00:00,
2013-06-01 13:14:00,79.2,57.2,29.83,West,275,1.0,2.0,47,0.00,,,0.01,Wunderground v.1.15,2013-06-01 18:14:00,
2013-06-01 13:20:00,79.1,56.5,29.83,NNW,346,2.0,4.0,46,0.00,,,0.01,Wunderground v.1.15,2013-06-01 18:20:00,
2013-06-01 13:34:00,79.3,59.0,29.83,NNE,17,2.0,3.0,50,0.00,,,0.01,Wunderground v.1.15,2013-06-01 18:34:00,
2013-06-01 13:40:00,80.1,59.2,29.82,NNW,345,2.0,5.0,49,0.00,,,0.01,Wunderground v.1.15,2013-06-01 18:40:00,
2013-06-01 13:54:00,79.9,59.0,29.83,NNW,341,4.0,5.0,49,0.00,,,0.01,Wunderground v.1.15,2013-06-01 18:54:00,
2013-06-01 14:00:00,79.4,57.4,29.83,NNW,338,4.0,8.0,47,0.00,,,0.01,Wunderground v.1.15,2013-06-01 19:00:00,
2013-06-01 14:14:00,79.8,58.9,29.82,NNW,333,4.0,4.0,49,0.00,,,0.01,Wunderground v.1.15,2013-06-01 19:14:00,
2013-06-01 14:20:00,79.7,58.8,29.82,North,349,4.0,5.0,49,0.00,,,0.01,Wunderground v.1.15,2013-06-01 19:20:00,
2013-06-01 14:34:00,80.9,59.9,29.83,NNW,338,3.0,3.0,49,0.00,,,0.01,Wunderground v.1.15,2013-06-01 19:34:00,
2013-06-01 14:40:00,81.0,60.0,29.82,NNE,22,3.0,6.0,49,0.00,,,0.01,Wunderground v.1.15,2013-06-01 19:40:00,
2013-06-01 14:54:00,79.6,59.3,29.82,NNE,19,5.0,5.0,50,0.00,,,0.01,Wunderground v.1.15,2013-06-01 19:54:00,
2013-06-01 15:00:00,80.0,59.1,29.82,WSW,253,4.0,4.0,49,0.00,,,0.01,Wunderground v.1.15,2013-06-01 20:00:00,
2013-06-01 15:14:00,80.3,59.4,29.82,NNE,24,4.0,4.0,49,0.00,,,0.01,Wunderground v.1.15,2013-06-01 20:14:00,
2013-06-01 15:20:00,80.5,60.1,29.82,NW,326,3.0,5.0,50,0.00,,,0.01,Wunderground v.1.15,2013-06-01 20:20:00,
2013-06-01 15:34:00,79.9,58.5,29.82,NNW,343,4.0,4.0,48,0.00,,,0.01,Wunderground v.1.15,2013-06-01 20:34:00,
2013-06-01 15:40:00,79.2,57.8,29.82,NNW,344,5.0,11.0,48,0.00,,,0.01,Wunderground v.1.15,2013-06-01 20:40:00,
2013-06-01 15:54:00,79.1,56.5,29.82,NNW,336,5.0,5.0,46,0.00,,,0.01,Wunderground v.1.15,2013-06-01 20:54:00,
2013-06-01 16:00:00,79.2,57.2,29.83,NW,319,5.0,7.0,47,0.00,,,0.01,Wunderground v.1.15,2013-06-01 21:00:00,
2013-06-01 16:14:00,78.7,57.4,29.82,NW,315,6.0,6.0,48,0.00,,,0.01,Wunderground v.1.15,2013-06-01 21:14:00,
2013-06-01 16:20:00,79.0,57.6,29.83,NNW,348,5.0,9.0,48,0.00,,,0.01,Wunderground v.1.15,2013-06-01 21:20:00,
2013-06-01 16:34:00,79.4,57.4,29.83,NNW,344,5.0,5.0,47,0.00,,,0.01,Wunderground v.1.15,2013-06-01 21:34:00,
2013-06-01 16:40:00,79.2,57.8,29.83,NNW,342,5.0,11.0,48,0.00,,,0.01,Wunderground v.1.15,2013-06-01 21:40:00,
2013-06-01 16:54:00,79.9,57.3,29.83,NNW,341,4.0,4.0,46,0.00,,,0.01,Wunderground v.1.15,2013-06-01 21:54:00,
2013-06-01 17:00:00,79.5,57.5,29.83,WNW,303,5.0,5.0,47,0.00,,,0.01,Wunderground v.1.15,2013-06-01 22:00:00,
2013-06-01 17:14:00,79.3,57.9,29.83,North,5,5.0,5.0,48,0.00,,,0.01,Wunderground v.1.15,2013-06-01 22:14:00,
2013-06-01 17:20:00,79.2,56.6,29.83,North,349,4.0,5.0,46,0.00,,,0.01,Wunderground v.1.15,2013-06-01 22:20:00,
2013-06-01 17:34:00,79.4,57.4,29.83,NNW,330,4.0,4.0,47,0.00,,,0.01,Wunderground v.1.15,2013-06-01 22:34:00,
2013-06-01 17:40:00,79.4,56.8,29.83,NNW,338,4.0,7.0,46,0.00,,,0.01,Wunderground v.1.15,2013-06-01 22:40:00,
2013-06-01 17:54:00,78.4,56.5,29.84,NW,310,6.0,8.0,47,0.00,,,0.01,Wunderground v.1.15,2013-06-01 22:54:00,
2013-06-01 18:00:00,78.3,57.0,29.84,NNE,13,6.0,6.0,48,0.00,,,0.01,Wunderground v.1.15,2013-06-01 23:00:00,
2013-06-01 18:14:00,78.4,57.1,29.84,North,9,5.0,5.0,48,0.00,,,0.01,Wunderground v.1.15,2013-06-01 23:14:00,
2013-06-01 18:20:00,78.0,56.7,29.84,WNW,294,6.0,10.0,48,0.00,,,0.01,Wunderground v.1.15,2013-06-01 23:20:00,
2013-06-01 18:34:00,76.7,57.2,29.85,NNW,336,7.0,7.0,51,0.00,,,0.01,Wunderground v.1.15,2013-06-01 23:34:00,
2013-06-01 18:40:00,76.4,56.9,29.85,NNW,337,7.0,11.0,51,0.00,,,0.01,Wunderground v.1.15,2013-06-01 23:40:00,
2013-06-01 18:54:00,76.0,56.6,29.85,NW,325,6.0,9.0,51,0.00,,,0.01,Wunderground v.1.15,2013-06-01 23:54:00,
2013-06-01 19:00:00,75.9,57.0,29.85,NNW,338,5.0,9.0,52,0.00,,,0.01,Wunderground v.1.15,2013-06-02 00:00:00,
2013-06-01 19:14:00,75.5,56.6,29.85,NNE,19,6.0,7.0,52,0.00,,,0.01,Wunderground v.1.15,2013-06-02 00:14:00,
2013-06-01 19:20:00,75.5,56.6,29.86,NNW,345,6.0,7.0,52,0.00,,,0.01,Wunderground v.1.15,2013-06-02 00:20:00,
2013-06-01 19:34:00,75.0,56.7,29.86,NNW,346,5.0,5.0,53,0.00,,,0.01,Wunderground v.1.15,2013-06-02 00:34:00,
2013-06-01 19:40:00,74.8,56.5,29.86,NNW,348,4.0,5.0,53,0.00,,,0.01,Wunderground v.1.15,2013-06-02 00:40:00,
2013-06-01 19:54:00,74.2,56.0,29.86,North,355,5.0,5.0,53,0.00,,,0.01,Wunderground v.1.15,2013-06-02 00:54:00,
2013-06-01 20:00:00,74.0,56.3,29.86,NNW,336,4.0,4.0,54,0.00,,,0.01,Wunderground v.1.15,2013-06-02 01:00:00,
2013-06-01 20:14:00,72.9,56.8,29.86,NW,322,4.0,4.0,57,0.00,,,0.01,Wunderground v.1.15,2013-06-02 01:14:00,
2013-06-01 20:20:00,72.7,57.1,29.86,NNW,329,2.0,4.0,58,0.00,,,0.01,Wunderground v.1.15,2013-06-02 01:20:00,
2013-06-01 20:34:00,72.1,56.5,29.88,NNW,340,3.0,3.0,58,0.00,,,0.01,Wunderground v.1.15,2013-06-02 01:34:00,
2013-06-01 20:40:00,71.8,56.7,29.88,NNW,340,3.0,3.0,59,0.00,,,0.01,Wunderground v.1.15,2013-06-02 01:40:00,
2013-06-01 20:54:00,71.3,56.7,29.88,NNW,347,2.0,2.0,60,0.00,,,0.01,Wunderground v.1.15,2013-06-02 01:54:00,
2013-06-01 21:00:00,71.1,57.0,29.88,NNE,14,2.0,2.0,61,0.00,,,0.01,Wunderground v.1.15,2013-06-02 02:00:00,
2013-06-01 21:14:00,70.6,56.9,29.89,NNW,345,1.0,1.0,62,0.00,,,0.01,Wunderground v.1.15,2013-06-02 02:14:00,
2013-06-01 21:20:00,70.4,57.2,29.89,NNW,342,2.0,5.0,63,0.00,,,0.01,Wunderground v.1.15,2013-06-02 02:20:00,
2013-06-01 21:34:00,69.9,57.2,29.90,NNW,342,1.0,1.0,64,0.00,,,0.01,Wunderground v.1.15,2013-06-02 02:34:00,
2013-06-01 21:40:00,69.7,57.4,29.91,NNW,341,2.0,2.0,65,0.00,,,0.01,Wunderground v.1.15,2013-06-02 02:40:00,
2013-06-01 21:54:00,69.2,57.4,29.91,NNW,336,2.0,2.0,66,0.00,,,0.01,Wunderground v.1.15,2013-06-02 02:54:00,
2013-06-01 22:00:00,69.0,57.6,29.91,NNW,336,1.0,1.0,67,0.00,,,0.01,Wunderground v.1.15,2013-06-02 03:00:00,
2013-06-01 22:14:00,68.7,57.3,29.92,NNW,348,2.0,2.0,67,0.00,,,0.01,Wunderground v.1.15,2013-06-02 03:14:00,
2013-06-01 22:20:00,68.5,57.5,29.92,NNW,348,1.0,4.0,68,0.00,,,0.01,Wunderground v.1.15,2013-06-02 03:20:00,
2013-06-01 22:34:00,68.3,57.7,29.92,NNW,347,1.0,1.0,69,0.00,,,0.01,Wunderground v.1.15,2013-06-02 03:34:00,
2013-06-01 22:40:00,68.1,57.5,29.93,NNW,347,0.0,1.0,69,0.00,,,0.01,Wunderground v.1.15,2013-06-02 03:40:00,
2013-06-01 22:54:00,67.9,57.4,29.93,NNW,347,1.0,1.0,69,0.00,,,0.01,Wunderground v.1.15,2013-06-02 03:54:00,
2013-06-01 23:00:00,67.7,57.6,29.93,NNW,347,0.0,0.0,70,0.00,,,0.01,Wunderground v.1.15,2013-06-02 04:00:00,
2013-06-01 23:02:00,67.6,57.5,29.93,NNW,347,0.0,0.0,70,0.00,,,0.01,Wunderground v.1.15,2013-06-02 04:02:00,
2013-06-01 23:14:00,67.2,57.5,29.93,NNW,347,1.0,1.0,71,0.00,,,0.01,Wunderground v.1.15,2013-06-02 04:14:00,
2013-06-01 23:16:00,67.1,57.4,29.93,NNW,347,1.0,2.0,71,0.00,,,0.01,Wunderground v.1.15,2013-06-02 04:16:00,
2013-06-01 23:18:00,67.1,57.4,29.93,NNW,347,1.0,2.0,71,0.00,,,0.01,Wunderground v.1.15,2013-06-02 04:18:00,
2013-06-01 23:22:00,66.9,57.6,29.93,NNW,347,1.0,2.0,72,0.00,,,0.01,Wunderground v.1.15,2013-06-02 04:22:00,
2013-06-01 23:34:00,66.7,57.4,29.93,North,355,1.0,2.0,72,0.00,,,0.01,Wunderground v.1.15,2013-06-02 04:34:00,
2013-06-01 23:40:00,66.5,57.2,29.93,North,355,1.0,2.0,72,0.00,,,0.01,Wunderground v.1.15,2013-06-02 04:40:00,
2013-06-01 23:54:00,66.2,57.3,29.93,North,355,0.0,0.0,73,0.00,,,0.01,Wunderground v.1.15,2013-06-02 04:54:00,